Time;durP1;ratioP1;P1;durP2;ratioP2;P2;SDS_P1;SDS_P2;PMS_P1;PMS_P2;Temp;Humidity;BMP_temperature;BMP_pressure;BME280_temperature;BME280_humidity;BME280_pressure;Samples;Min_cycle;Max_cycle;Signal;HPM_P1;HPM_P2
2022/12/16 00:01:25;;;;;;;2.50;1.25;;;0.00;66.20;;;;;;4218749;27;20059;-85
2022/12/16 00:03:25;;;;;;;5.27;1.40;;;-0.10;66.30;;;;;;4210885;28;20036;-84
2022/12/16 00:05:27;;;;;;;7.28;1.65;;;-0.10;66.50;;;;;;4208670;28;20045;-87
2022/12/16 00:07:29;;;;;;;2.53;1.13;;;-0.10;66.70;;;;;;4200245;28;20024;-87
2022/12/16 00:09:29;;;;;;;5.35;1.38;;;-0.10;66.40;;;;;;4208303;28;20380;-86
2022/12/16 00:11:31;;;;;;;5.47;1.40;;;-0.10;66.60;;;;;;4212404;28;20106;-86
2022/12/16 00:13:33;;;;;;;2.83;1.45;;;-0.10;66.90;;;;;;4205717;28;20464;-87
2022/12/16 00:15:36;;;;;;;4.10;1.50;;;-0.10;67.30;;;;;;4193971;28;20037;-87
2022/12/16 00:17:38;;;;;;;9.57;1.92;;;-0.10;67.50;;;;;;4213220;28;20077;-85
2022/12/16 00:19:39;;;;;;;4.00;1.83;;;-0.20;67.80;;;;;;4209317;28;20454;-86
2022/12/16 00:21:40;;;;;;;6.18;1.80;;;-0.10;68.10;;;;;;4197357;28;20023;-87
2022/12/16 00:23:41;;;;;;;3.70;1.73;;;-0.20;68.40;;;;;;4212007;28;20027;-87
2022/12/16 00:25:43;;;;;;;4.15;1.40;;;-0.20;68.90;;;;;;4220515;28;20031;-89
2022/12/16 00:27:43;;;;;;;8.65;1.95;;;-0.20;69.00;;;;;;4208733;27;20028;-87
2022/12/16 00:29:44;;;;;;;6.85;1.85;;;-0.20;68.90;;;;;;4203807;28;20034;-87
2022/12/16 00:31:47;;;;;;;3.75;1.63;;;-0.10;68.90;;;;;;4197389;28;20062;-88
2022/12/16 00:33:47;;;;;;;3.38;1.60;;;-0.10;68.80;;;;;;4213103;28;20042;-88
2022/12/16 00:35:49;;;;;;;2.92;1.67;;;-0.10;68.60;;;;;;4231726;28;20093;-87
2022/12/16 00:37:49;;;;;;;7.13;1.60;;;-0.20;68.60;;;;;;4229744;28;20075;-87
2022/12/16 00:39:50;;;;;;;7.35;1.88;;;-0.20;68.70;;;;;;4200790;28;20024;-87
2022/12/16 00:41:51;;;;;;;7.95;2.08;;;-0.30;69.00;;;;;;4210639;28;20059;-88
2022/12/16 00:43:52;;;;;;;5.40;1.88;;;-0.30;69.20;;;;;;4203307;28;20020;-87
2022/12/16 00:45:52;;;;;;;6.25;1.98;;;-0.30;69.10;;;;;;4198690;28;20028;-86
2022/12/16 00:47:53;;;;;;;5.30;1.70;;;-0.30;69.20;;;;;;4213103;28;20028;-87
2022/12/16 00:49:55;;;;;;;3.17;1.67;;;-0.40;69.30;;;;;;4198569;28;20089;-87
2022/12/16 00:52:16;;;;;;;4.43;2.00;;;-0.30;69.40;;;;;;4209296;28;20034;-86
2022/12/16 00:54:17;;;;;;;3.90;2.30;;;-0.30;69.20;;;;;;4213670;28;20602;-86
2022/12/16 00:56:38;;;;;;;4.03;1.85;;;-0.30;69.20;;;;;;4214681;28;20539;-86
2022/12/16 00:58:59;;;;;;;6.55;2.08;;;-0.30;69.30;;;;;;4214249;27;20039;-86
2022/12/16 01:01:20;;;;;;;5.07;2.20;;;-0.40;69.20;;;;;;4209928;27;20799;-86
2022/12/16 01:03:40;;;;;;;3.97;2.20;;;-0.30;69.30;;;;;;4206768;28;20763;-86
2022/12/16 01:06:06;;;;;;;5.45;1.90;;;-0.30;69.10;;;;;;4197349;27;20473;-86
2022/12/16 01:08:27;;;;;;;3.38;1.90;;;-0.30;69.20;;;;;;4204723;28;20016;-86
2022/12/16 01:10:55;;;;;;;3.13;1.70;;;-0.30;69.20;;;;;;4211045;27;20574;-85
2022/12/16 01:13:16;;;;;;;3.78;1.60;;;-0.40;69.00;;;;;;4211979;28;20392;-85
2022/12/16 01:15:37;;;;;;;5.65;1.55;;;-0.50;69.10;;;;;;4210592;27;20032;-85
2022/12/16 01:17:40;;;;;;;3.13;1.38;;;-0.50;69.10;;;;;;4213631;27;20055;-85
2022/12/16 01:20:01;;;;;;;5.57;1.95;;;-0.60;68.90;;;;;;4207605;28;20317;-86
2022/12/16 01:22:22;;;;;;;3.38;1.73;;;-0.50;68.80;;;;;;4212242;28;20093;-85
2022/12/16 01:24:43;;;;;;;2.80;1.30;;;-0.60;68.80;;;;;;4231136;27;20028;-85
2022/12/16 01:27:04;;;;;;;5.38;1.48;;;-0.60;68.50;;;;;;4227116;27;20078;-86
2022/12/16 01:29:24;;;;;;;5.43;1.70;;;-0.60;68.20;;;;;;4214942;28;20089;-85
2022/12/16 01:31:45;;;;;;;4.38;1.35;;;-0.60;67.90;;;;;;4211421;28;20028;-85
2022/12/16 01:34:06;;;;;;;2.88;1.30;;;-0.60;67.90;;;;;;4215843;28;20138;-86
2022/12/16 01:36:26;;;;;;;3.70;1.63;;;-0.60;68.00;;;;;;4213737;28;20057;-86
2022/12/16 01:38:47;;;;;;;3.95;1.55;;;-0.50;67.80;;;;;;4210347;28;20111;-86
2022/12/16 01:41:09;;;;;;;2.03;0.98;;;-0.50;67.50;;;;;;4209742;28;20025;-85
2022/12/16 01:43:33;;;;;;;4.93;1.20;;;-0.60;67.20;;;;;;4208447;28;20039;-86
2022/12/16 01:46:08;;;;;;;4.10;1.50;;;-0.60;66.70;;;;;;4209969;28;20188;-87
2022/12/16 01:48:35;;;;;;;6.13;1.00;;;-0.60;66.10;;;;;;4212261;28;20572;-86
2022/12/16 01:51:02;;;;;;;4.18;1.00;;;-0.60;65.30;;;;;;4211699;28;20031;-86
2022/12/16 01:53:23;;;;;;;2.72;1.10;;;-0.60;64.90;;;;;;4210414;28;20024;-86
2022/12/16 01:55:47;;;;;;;3.72;1.02;;;-0.80;63.50;;;;;;4214437;28;20122;-89
2022/12/16 01:58:17;;;;;;;1.73;0.95;;;-0.70;63.60;;;;;;4217178;28;20031;-85
2022/12/16 02:00:39;;;;;;;1.67;0.98;;;-0.70;63.40;;;;;;4228556;28;20055;-85
2022/12/16 02:03:00;;;;;;;2.22;1.15;;;-0.70;63.60;;;;;;4214984;28;20649;-86
2022/12/16 02:05:21;;;;;;;2.75;1.20;;;-0.70;64.60;;;;;;4208312;28;20035;-84
2022/12/16 02:07:41;;;;;;;3.58;1.25;;;-0.70;64.00;;;;;;4215425;28;20517;-84
2022/12/16 02:10:03;;;;;;;2.92;1.05;;;-0.70;64.40;;;;;;4215275;28;20101;-85
2022/12/16 02:12:41;;;;;;;2.28;1.17;;;-0.70;64.40;;;;;;4207455;27;20028;-85
2022/12/16 02:15:12;;;;;;;2.95;0.80;;;-0.80;64.90;;;;;;4217075;28;20085;-85
2022/12/16 02:18:07;;;;;;;1.88;1.00;;;-0.80;65.00;;;;;;4211460;27;20107;-86
2022/12/16 02:21:04;;;;;;;3.33;1.15;;;-0.80;65.20;;;;;;4196845;28;20075;-84
2022/12/16 02:23:36;;;;;;;4.15;1.17;;;-0.80;65.50;;;;;;4210256;27;20042;-84
2022/12/16 02:26:16;;;;;;;4.00;1.05;;;-0.80;65.80;;;;;;4213973;28;20032;-85
2022/12/16 02:28:51;;;;;;;4.25;1.27;;;-0.80;66.20;;;;;;4217558;27;20114;-83
2022/12/16 02:31:36;;;;;;;3.63;1.23;;;-0.80;66.20;;;;;;4212172;28;20032;-84
2022/12/16 02:34:12;;;;;;;5.00;0.95;;;-0.80;66.40;;;;;;4216722;28;20032;-84
2022/12/16 02:36:36;;;;;;;9.52;1.15;;;-0.60;66.60;;;;;;4213017;27;20474;-84
2022/12/16 02:39:19;;;;;;;3.03;1.27;;;-0.70;66.20;;;;;;4213717;27;20032;-84
2022/12/16 02:41:54;;;;;;;3.65;0.90;;;-0.80;65.90;;;;;;4212319;27;20035;-84
2022/12/16 02:44:17;;;;;;;6.35;1.30;;;-0.80;65.90;;;;;;4221417;27;20063;-85
2022/12/16 02:46:51;;;;;;;2.00;1.13;;;-0.70;65.80;;;;;;4215804;27;20039;-85
2022/12/16 02:49:12;;;;;;;;;;;-0.70;65.50;;;;;;4221879;28;20487;-85
2022/12/16 02:51:34;;;;;;;2.92;1.10;;;-0.70;65.60;;;;;;4214957;28;19914;-84
2022/12/16 02:53:56;;;;;;;1.45;0.95;;;-0.60;65.70;;;;;;4216829;28;20035;-85
2022/12/16 02:56:33;;;;;;;6.50;1.20;;;-0.70;65.30;;;;;;4217014;28;20037;-85
2022/12/16 02:59:23;;;;;;;2.20;0.88;;;-0.70;65.10;;;;;;4212497;28;20063;-85
2022/12/16 03:01:55;;;;;;;7.57;1.15;;;-0.70;65.40;;;;;;4215315;28;20031;-86
2022/12/16 03:04:42;;;;;;;3.13;1.00;;;-0.70;65.20;;;;;;4213347;28;20036;-86
2022/12/16 03:07:03;;;;;;;4.00;1.00;;;-0.70;65.10;;;;;;4214860;27;20059;-86
2022/12/16 03:09:28;;;;;;;2.53;1.00;;;-0.80;65.00;;;;;;4211950;27;20449;-85
2022/12/16 03:11:49;;;;;;;2.58;0.90;;;-0.80;64.60;;;;;;4221158;27;20031;-85
2022/12/16 03:14:12;;;;;;;6.65;0.90;;;-0.80;64.20;;;;;;4221382;27;20131;-85
2022/12/16 03:16:33;;;;;;;2.17;0.80;;;-0.80;63.70;;;;;;4228966;28;20054;-86
2022/12/16 03:18:57;;;;;;;1.58;0.93;;;-0.80;63.80;;;;;;4216205;28;20093;-86
2022/12/16 03:21:17;;;;;;;5.07;1.17;;;-0.80;64.10;;;;;;4219247;28;20051;-85
2022/12/16 03:23:44;;;;;;;3.75;1.00;;;-0.80;64.50;;;;;;4215140;28;20407;-85
2022/12/16 03:26:20;;;;;;;2.38;1.00;;;-0.80;64.80;;;;;;4216341;27;20141;-85
2022/12/16 03:29:14;;;;;;;2.42;1.17;;;-0.70;64.80;;;;;;4227061;28;20085;-85
2022/12/16 03:31:48;;;;;;;1.95;1.00;;;-0.70;64.80;;;;;;4214802;28;20084;-86
2022/12/16 03:34:24;;;;;;;5.10;1.25;;;-0.60;65.00;;;;;;4216207;28;20027;-86
2022/12/16 03:36:50;;;;;;;2.10;1.10;;;-0.60;65.20;;;;;;4219346;27;20034;-86
2022/12/16 03:39:10;;;;;;;2.58;1.40;;;-0.60;65.20;;;;;;4220766;28;20063;-86
2022/12/16 03:41:31;;;;;;;4.05;1.55;;;-0.60;65.10;;;;;;4216287;28;20094;-85
2022/12/16 03:43:51;;;;;;;3.55;1.38;;;-0.70;65.20;;;;;;4215008;28;20046;-86
2022/12/16 03:46:11;;;;;;;7.50;1.45;;;-0.70;65.70;;;;;;4218672;28;20092;-85
2022/12/16 03:48:32;;;;;;;9.63;1.65;;;-0.70;66.00;;;;;;4212832;27;20034;-85
2022/12/16 03:50:51;;;;;;;3.90;1.60;;;-0.70;66.30;;;;;;4213354;27;20096;-86
2022/12/16 03:53:10;;;;;;;3.38;1.30;;;-0.80;66.90;;;;;;4218961;27;20062;-85
2022/12/16 03:55:30;;;;;;;5.05;1.58;;;-0.80;67.20;;;;;;4216428;27;20128;-86
2022/12/16 03:57:49;;;;;;;4.57;1.70;;;-0.80;67.30;;;;;;4210283;27;20265;-84
2022/12/16 04:00:09;;;;;;;5.13;1.70;;;-0.90;67.20;;;;;;4213505;28;20411;-85
2022/12/16 04:02:28;;;;;;;3.40;1.35;;;-0.80;67.30;;;;;;4218885;27;20046;-85
2022/12/16 04:04:48;;;;;;;6.25;1.98;;;-0.80;67.00;;;;;;4214599;28;20038;-85
2022/12/16 04:07:19;;;;;;;3.65;1.35;;;-0.90;66.90;;;;;;4212605;28;20093;-85
2022/12/16 04:09:38;;;;;;;2.97;1.30;;;-0.90;66.90;;;;;;4214938;28;20038;-86
2022/12/16 04:25:23;;;;;;;4.55;1.40;;;-1.00;65.10;;;;;;4215469;27;20038;-85
2022/12/16 04:27:45;;;;;;;2.72;1.45;;;-1.00;65.40;;;;;;4209680;28;20046;-84
2022/12/16 04:30:20;;;;;;;3.60;1.02;;;-1.00;65.60;;;;;;4212582;28;20427;-85
